Terminal Aerodrome Forecast
Issued by NWS

Home | Current Version | Previous Version | Text Only | Print | Product List | Glossary On
Versions: 1 2 3 4 5 6 7 8 9 10 11 12 13 14 15 16 17 18 19 20 21 22 23 24 25 26
000
FTUS46 KSEW 230520
TAFSEA
TAF
KSEA 230520Z 2306/2412 20004KT P6SM BKN150
     FM231300 18003KT P6SM SCT012 OVC080
      TEMPO 2314/2317 BKN012 OVC080
     FM231800 22004KT P6SM SCT010 BKN080
     FM232100 25004KT P6SM SCT080 SCT120=

USA.gov is the U.S. government's official web portal to all federal, state and local government web resources and services.